Time;durP1;ratioP1;P1;durP2;ratioP2;P2;SDS_P1;SDS_P2;PMS_P1;PMS_P2;Temp;Humidity;BMP_temperature;BMP_pressure;BME280_temperature;BME280_humidity;BME280_pressure;Samples;Min_cycle;Max_cycle;Signal;HPM_P1;HPM_P2
2021/10/23 00:00:36;;;;;;;9.57;3.20;;;8.30;99.90;;;;;;5074903;28;20070;-86
2021/10/23 00:03:02;;;;;;;14.00;3.83;;;8.30;99.90;;;;;;5039693;28;20032;-86
2021/10/23 00:05:28;;;;;;;9.55;4.00;;;8.20;99.90;;;;;;5040449;28;20044;-87
2021/10/23 00:07:54;;;;;;;12.98;3.38;;;8.30;99.90;;;;;;5051201;28;20033;-86
2021/10/23 00:10:20;;;;;;;12.07;3.70;;;8.30;99.90;;;;;;5046151;28;20029;-86
2021/10/23 00:12:46;;;;;;;11.82;4.00;;;8.20;99.90;;;;;;5048403;28;20112;-86
2021/10/23 00:15:11;;;;;;;9.52;3.80;;;8.20;99.90;;;;;;5040149;28;20070;-86
2021/10/23 00:17:37;;;;;;;12.27;4.05;;;8.20;99.90;;;;;;5040508;28;20037;-86
2021/10/23 00:20:04;;;;;;;10.13;3.60;;;8.20;99.90;;;;;;5023369;28;20036;-86
2021/10/23 00:22:30;;;;;;;12.68;3.67;;;8.20;99.90;;;;;;5040060;28;20029;-86
2021/10/23 00:24:56;;;;;;;9.13;4.00;;;8.20;99.90;;;;;;5074960;28;20070;-86
2021/10/23 00:27:22;;;;;;;9.70;3.60;;;8.20;99.90;;;;;;5057070;28;20025;-85
2021/10/23 00:29:48;;;;;;;10.23;3.85;;;8.20;99.90;;;;;;5079032;28;20044;-87
2021/10/23 00:32:14;;;;;;;9.63;4.00;;;8.20;99.90;;;;;;5075997;28;20025;-87
2021/10/23 00:34:39;;;;;;;10.30;3.78;;;8.20;99.90;;;;;;5076296;28;20115;-87
2021/10/23 00:37:05;;;;;;;11.00;3.88;;;8.20;99.90;;;;;;5078959;28;20024;-87
2021/10/23 00:39:31;;;;;;;10.00;4.30;;;8.20;99.90;;;;;;5061980;28;20033;-87
2021/10/23 00:41:56;;;;;;;6.75;3.60;;;8.20;99.90;;;;;;5075303;28;20029;-86
2021/10/23 00:44:33;;;;;;;8.65;3.80;;;8.20;99.90;;;;;;5042573;28;20024;-86
2021/10/23 00:47:08;;;;;;;10.88;3.28;;;8.10;99.90;;;;;;5087312;28;20021;-86
2021/10/23 00:49:35;;;;;;;9.52;4.13;;;8.10;99.90;;;;;;5058023;28;20099;-86
2021/10/23 00:52:03;;;;;;;11.13;4.25;;;8.10;99.90;;;;;;5074859;28;20024;-86
2021/10/23 00:54:29;;;;;;;8.55;4.15;;;8.10;99.90;;;;;;5056548;28;20460;-85
2021/10/23 00:56:56;;;;;;;12.90;4.60;;;8.10;99.90;;;;;;5032112;28;20017;-86
2021/10/23 00:59:22;;;;;;;10.45;4.32;;;8.10;99.90;;;;;;5074050;28;20060;-86
2021/10/23 01:01:49;;;;;;;9.70;4.45;;;8.10;99.90;;;;;;5059720;28;20111;-86
2021/10/23 01:04:15;;;;;;;8.68;4.70;;;8.00;99.90;;;;;;5059955;28;20039;-87
2021/10/23 01:06:41;;;;;;;9.98;4.75;;;8.00;99.90;;;;;;5059838;28;20025;-85
2021/10/23 01:09:07;;;;;;;10.65;4.65;;;8.00;99.90;;;;;;5059453;28;20032;-84
2021/10/23 01:11:33;;;;;;;7.75;4.40;;;8.00;99.90;;;;;;5059585;28;20112;-86
2021/10/23 01:13:59;;;;;;;13.93;5.00;;;8.00;99.90;;;;;;5059970;28;20024;-86
2021/10/23 01:16:25;;;;;;;9.40;4.63;;;8.00;99.90;;;;;;5059647;28;20076;-86
2021/10/23 01:18:51;;;;;;;10.07;4.88;;;8.00;99.90;;;;;;5059429;28;20028;-87
2021/10/23 01:21:23;;;;;;;11.43;4.82;;;8.00;99.90;;;;;;5077766;28;20107;-86
2021/10/23 01:23:50;;;;;;;8.52;4.32;;;8.00;99.90;;;;;;5053211;28;20040;-87
2021/10/23 01:26:21;;;;;;;11.68;5.57;;;8.00;99.90;;;;;;5052708;28;20032;-86
2021/10/23 01:28:47;;;;;;;8.77;4.35;;;8.00;99.90;;;;;;5059047;28;20031;-86
2021/10/23 01:31:13;;;;;;;14.10;5.00;;;8.00;99.90;;;;;;5076667;28;20025;-86
2021/10/23 01:33:38;;;;;;;9.55;4.88;;;8.00;99.90;;;;;;5042785;28;20028;-86
2021/10/23 01:36:16;;;;;;;7.22;4.20;;;7.90;99.90;;;;;;5058910;28;20473;-86
2021/10/23 01:38:43;;;;;;;8.50;4.53;;;7.90;99.90;;;;;;5055884;28;20039;-86
2021/10/23 01:41:09;;;;;;;8.27;4.45;;;7.90;99.90;;;;;;5077227;28;20020;-86
2021/10/23 01:43:35;;;;;;;12.95;4.55;;;7.90;99.90;;;;;;5058681;28;20021;-87
2021/10/23 01:46:01;;;;;;;6.80;3.60;;;7.80;99.90;;;;;;5058847;28;20085;-85
2021/10/23 01:48:27;;;;;;;6.15;3.35;;;7.80;99.90;;;;;;5077113;28;20025;-86
2021/10/23 01:50:53;;;;;;;6.00;3.30;;;7.80;99.90;;;;;;5042080;28;20465;-86
2021/10/23 01:53:18;;;;;;;6.50;3.90;;;7.70;99.90;;;;;;5058909;28;20119;-86
2021/10/23 01:55:45;;;;;;;8.13;3.63;;;7.70;99.90;;;;;;5042227;28;20029;-86
2021/10/23 01:58:11;;;;;;;10.15;4.57;;;7.70;99.90;;;;;;5042158;28;20029;-86
2021/10/23 02:00:37;;;;;;;6.90;4.35;;;7.70;99.90;;;;;;5058396;28;20056;-86
2021/10/23 02:03:03;;;;;;;10.80;4.82;;;7.60;99.90;;;;;;5025485;28;20052;-86
2021/10/23 02:05:29;;;;;;;13.10;4.70;;;7.60;99.90;;;;;;5042293;28;20108;-86
2021/10/23 02:07:55;;;;;;;11.82;5.32;;;7.70;99.90;;;;;;5050710;28;20024;-86
2021/10/23 02:10:20;;;;;;;11.20;5.28;;;7.60;99.90;;;;;;5041984;28;20025;-86
2021/10/23 02:12:46;;;;;;;12.15;4.88;;;7.60;99.90;;;;;;5041548;28;20025;-86
2021/10/23 02:15:12;;;;;;;9.20;4.80;;;7.60;99.90;;;;;;5041854;28;20044;-86
2021/10/23 02:17:37;;;;;;;9.13;4.95;;;7.60;99.90;;;;;;5033547;28;20036;-85
2021/10/23 02:20:08;;;;;;;12.05;5.40;;;7.60;99.90;;;;;;5052957;28;20031;-84
2021/10/23 02:22:34;;;;;;;10.02;5.60;;;7.60;99.90;;;;;;5034404;28;20470;-86
2021/10/23 02:24:59;;;;;;;10.82;5.43;;;7.60;99.90;;;;;;5051766;28;20134;-86
2021/10/23 02:27:25;;;;;;;10.52;5.30;;;7.60;99.90;;;;;;5041382;28;20480;-86
2021/10/23 02:29:51;;;;;;;8.93;5.25;;;7.60;99.90;;;;;;5041633;28;20028;-86
2021/10/23 02:32:17;;;;;;;15.48;5.82;;;7.60;99.90;;;;;;5038674;28;20025;-86
2021/10/23 02:34:43;;;;;;;12.77;5.43;;;7.60;99.90;;;;;;5036280;28;20108;-86
2021/10/23 02:37:09;;;;;;;15.45;5.60;;;7.60;99.90;;;;;;5049731;28;20511;-85
2021/10/23 02:39:34;;;;;;;10.07;5.47;;;7.60;99.90;;;;;;5041634;28;20120;-86
2021/10/23 02:42:00;;;;;;;7.55;4.80;;;7.60;99.90;;;;;;5025047;28;20869;-86
2021/10/23 02:44:26;;;;;;;12.77;5.82;;;7.60;99.90;;;;;;5041740;28;20028;-86
2021/10/23 02:46:52;;;;;;;11.70;5.75;;;7.60;99.90;;;;;;5058068;28;20032;-86
2021/10/23 02:49:18;;;;;;;11.88;5.60;;;7.60;99.90;;;;;;5075975;28;20036;-86
2021/10/23 02:51:44;;;;;;;10.10;5.60;;;7.60;99.90;;;;;;5033251;28;20051;-86
2021/10/23 02:54:11;;;;;;;10.48;4.75;;;7.50;99.90;;;;;;5052515;28;20029;-86
2021/10/23 02:56:37;;;;;;;11.52;4.88;;;7.50;99.90;;;;;;5058080;28;20024;-86
2021/10/23 02:59:03;;;;;;;10.93;5.20;;;7.50;99.90;;;;;;5041168;28;20040;-86
2021/10/23 03:01:28;;;;;;;7.38;3.95;;;7.50;99.90;;;;;;5041447;28;20029;-86
2021/10/23 03:03:55;;;;;;;6.35;4.18;;;7.50;99.90;;;;;;5040808;28;20135;-85
2021/10/23 03:06:20;;;;;;;7.78;4.40;;;7.40;99.90;;;;;;5043813;28;20385;-85
2021/10/23 03:08:46;;;;;;;6.38;3.97;;;7.40;99.90;;;;;;5057488;28;20024;-86
2021/10/23 03:11:13;;;;;;;8.60;4.50;;;7.40;99.90;;;;;;5043400;28;20029;-86
2021/10/23 03:13:39;;;;;;;8.73;4.55;;;7.40;99.90;;;;;;5028070;28;20055;-86
2021/10/23 03:16:05;;;;;;;10.40;5.30;;;7.30;99.90;;;;;;5040265;28;20088;-86
2021/10/23 03:18:30;;;;;;;8.05;4.30;;;7.30;99.90;;;;;;5039818;28;20051;-87
2021/10/23 03:20:56;;;;;;;8.20;4.40;;;7.30;99.90;;;;;;5040339;28;20033;-86
2021/10/23 03:23:22;;;;;;;8.95;4.40;;;7.30;99.90;;;;;;5057582;28;20036;-86
2021/10/23 03:25:48;;;;;;;8.38;4.20;;;7.30;99.90;;;;;;5040879;28;20534;-86
2021/10/23 03:28:14;;;;;;;7.78;4.50;;;7.20;99.90;;;;;;5041106;28;20461;-86
2021/10/23 03:30:40;;;;;;;7.78;4.55;;;7.20;99.90;;;;;;5074943;28;20037;-86
2021/10/23 03:33:05;;;;;;;9.32;4.68;;;7.20;99.90;;;;;;5057340;28;20017;-86
2021/10/23 03:35:31;;;;;;;9.25;4.53;;;7.20;99.90;;;;;;5057859;28;20024;-86
2021/10/23 03:37:57;;;;;;;7.40;4.40;;;7.10;99.90;;;;;;5057183;28;20539;-86
2021/10/23 03:40:23;;;;;;;6.95;4.78;;;7.10;99.90;;;;;;5074332;28;20028;-86
2021/10/23 03:42:49;;;;;;;6.65;4.20;;;7.10;99.90;;;;;;5056910;28;20146;-86
2021/10/23 03:45:15;;;;;;;8.02;4.50;;;7.20;99.90;;;;;;5040499;28;20059;-86
2021/10/23 03:47:40;;;;;;;8.27;4.20;;;7.10;99.90;;;;;;5057254;28;20025;-86
2021/10/23 03:50:06;;;;;;;7.90;4.05;;;7.00;99.90;;;;;;5037357;28;20033;-86
2021/10/23 03:52:32;;;;;;;8.48;4.50;;;7.00;99.90;;;;;;5041026;28;20049;-86
2021/10/23 03:54:58;;;;;;;6.95;4.38;;;7.00;99.90;;;;;;5040571;28;20055;-86
2021/10/23 03:57:24;;;;;;;7.93;4.32;;;7.00;99.90;;;;;;5057229;28;20024;-86
2021/10/23 03:59:50;;;;;;;6.93;4.40;;;6.90;99.90;;;;;;5057292;28;20515;-85
2021/10/23 04:02:16;;;;;;;9.52;4.75;;;6.90;99.90;;;;;;5045524;28;20025;-86
2021/10/23 04:04:41;;;;;;;7.35;4.13;;;6.90;99.90;;;;;;5055367;28;20032;-86
2021/10/23 04:07:07;;;;;;;7.20;4.40;;;6.90;99.90;;;;;;5052212;28;20047;-86
2021/10/23 04:09:33;;;;;;;7.18;3.95;;;6.80;99.90;;;;;;5021160;28;20469;-86
2021/10/23 04:11:59;;;;;;;8.18;3.85;;;6.80;99.90;;;;;;5057135;28;20035;-86
2021/10/23 04:14:25;;;;;;;5.32;3.20;;;6.80;99.90;;;;;;5048202;28;20053;-86
2021/10/23 04:16:50;;;;;;;5.30;2.95;;;6.80;99.90;;;;;;5059937;28;20094;-88
2021/10/23 04:19:16;;;;;;;6.00;3.63;;;6.70;99.90;;;;;;5077283;28;20024;-87
2021/10/23 04:21:42;;;;;;;6.95;3.85;;;6.70;99.90;;;;;;5063424;28;20096;-86
2021/10/23 04:24:09;;;;;;;7.32;3.90;;;6.80;99.90;;;;;;5041093;28;20029;-86
2021/10/23 04:26:36;;;;;;;6.45;4.45;;;6.70;99.90;;;;;;5066713;28;20108;-86
2021/10/23 04:29:01;;;;;;;8.55;5.10;;;6.70;99.90;;;;;;5075571;28;20025;-87
2021/10/23 04:31:27;;;;;;;9.73;5.60;;;6.80;99.90;;;;;;5078046;28;20035;-87
2021/10/23 04:33:52;;;;;;;10.48;5.25;;;6.80;99.90;;;;;;5062662;28;20036;-87
2021/10/23 04:36:18;;;;;;;12.40;6.43;;;6.80;99.90;;;;;;5060990;28;20041;-86
2021/10/23 04:38:44;;;;;;;12.38;6.25;;;6.80;99.90;;;;;;5061016;28;20043;-86
2021/10/23 04:41:09;;;;;;;14.75;6.15;;;6.80;99.90;;;;;;5060376;28;20393;-87
2021/10/23 04:43:35;;;;;;;9.88;5.97;;;6.90;99.90;;;;;;5024227;28;20033;-86
2021/10/23 04:46:01;;;;;;;11.52;6.38;;;6.90;99.90;;;;;;5057734;28;20028;-86
2021/10/23 04:48:27;;;;;;;9.80;6.13;;;6.90;99.90;;;;;;5077218;28;20028;-86
2021/10/23 04:50:53;;;;;;;8.77;5.75;;;6.90;99.90;;;;;;5060641;28;20029;-85
2021/10/23 04:53:19;;;;;;;12.30;6.20;;;6.90;99.90;;;;;;5027142;28;20036;-86
2021/10/23 04:55:44;;;;;;;9.75;6.18;;;6.90;99.90;;;;;;5060582;28;20025;-87
2021/10/23 04:58:10;;;;;;;12.57;6.40;;;6.90;99.90;;;;;;5023419;28;20125;-86
2021/10/23 05:00:36;;;;;;;8.90;5.80;;;6.90;99.90;;;;;;5068485;28;20029;-85
2021/10/23 05:03:02;;;;;;;8.27;5.78;;;6.90;99.90;;;;;;5026915;28;20021;-86
2021/10/23 05:05:28;;;;;;;13.23;6.72;;;6.90;99.90;;;;;;5044385;28;20392;-86
2021/10/23 05:07:54;;;;;;;7.65;5.28;;;6.90;99.90;;;;;;5024979;28;20029;-86
2021/10/23 05:10:19;;;;;;;10.63;6.30;;;6.90;99.90;;;;;;5060400;28;20054;-86
2021/10/23 05:12:45;;;;;;;11.02;6.07;;;6.90;99.90;;;;;;5076950;28;20062;-86
2021/10/23 05:15:11;;;;;;;9.60;5.40;;;6.80;99.90;;;;;;5042885;28;20029;-86
2021/10/23 05:17:37;;;;;;;9.88;5.43;;;6.80;99.90;;;;;;5043888;28;20115;-86
2021/10/23 05:20:04;;;;;;;8.00;5.22;;;6.80;99.90;;;;;;5042764;28;20131;-86
2021/10/23 05:22:30;;;;;;;10.15;5.80;;;6.80;99.90;;;;;;5059386;28;20024;-86
2021/10/23 05:24:56;;;;;;;8.52;5.53;;;6.70;99.90;;;;;;5077037;28;20104;-87
2021/10/23 05:27:21;;;;;;;8.50;5.80;;;6.70;99.90;;;;;;5025967;28;20025;-86
2021/10/23 05:29:47;;;;;;;10.25;5.78;;;6.70;99.90;;;;;;5058753;28;20036;-86
2021/10/23 05:32:12;;;;;;;8.30;5.57;;;6.60;99.90;;;;;;5076579;28;20028;-86
2021/10/23 05:34:38;;;;;;;11.43;5.85;;;6.60;99.90;;;;;;5042426;28;20031;-87
2021/10/23 05:37:04;;;;;;;10.10;5.80;;;6.60;99.90;;;;;;5060199;28;20028;-86
2021/10/23 05:39:29;;;;;;;10.05;5.60;;;6.60;99.90;;;;;;5043138;28;20524;-87
2021/10/23 05:41:55;;;;;;;12.70;6.60;;;6.60;99.90;;;;;;5058671;28;20021;-87
2021/10/23 05:44:21;;;;;;;8.43;5.63;;;6.60;99.90;;;;;;5059531;28;20419;-87
2021/10/23 05:46:46;;;;;;;12.00;6.30;;;6.50;99.90;;;;;;5042904;28;20358;-87
2021/10/23 05:49:12;;;;;;;9.20;6.32;;;6.50;99.90;;;;;;5042231;28;20036;-87
2021/10/23 05:51:40;;;;;;;9.75;5.60;;;6.50;99.90;;;;;;5059742;28;20039;-86
2021/10/23 05:54:06;;;;;;;8.60;5.18;;;6.50;99.90;;;;;;5042641;28;20029;-87
2021/10/23 05:56:31;;;;;;;14.82;5.90;;;6.40;99.90;;;;;;5025037;28;20023;-86
2021/10/23 05:59:10;;;;;;;17.55;6.00;;;6.40;99.90;;;;;;5041106;28;20036;-86
2021/10/23 06:01:37;;;;;;;21.50;5.47;;;6.40;99.90;;;;;;5057932;28;20028;-87
2021/10/23 06:04:02;;;;;;;15.30;5.15;;;6.40;99.90;;;;;;5042171;28;20028;-87
2021/10/23 06:06:28;;;;;;;10.68;5.47;;;6.40;99.90;;;;;;5039011;28;20033;-85
2021/10/23 06:08:55;;;;;;;11.23;5.55;;;6.30;99.90;;;;;;5032081;28;20043;-86
2021/10/23 06:11:20;;;;;;;12.00;5.03;;;6.40;99.90;;;;;;5025654;28;20024;-86
2021/10/23 06:13:47;;;;;;;6.40;4.30;;;6.30;99.90;;;;;;5025842;28;20096;-86
2021/10/23 06:16:13;;;;;;;8.73;5.18;;;6.40;99.90;;;;;;5009231;28;20452;-86
2021/10/23 06:18:39;;;;;;;9.23;5.47;;;6.30;99.90;;;;;;5038280;28;20059;-87
2021/10/23 06:21:05;;;;;;;12.63;5.78;;;6.30;99.90;;;;;;5054504;28;20119;-87
2021/10/23 06:23:32;;;;;;;7.32;5.20;;;6.30;99.90;;;;;;5055751;28;20040;-86
2021/10/23 06:25:58;;;;;;;9.07;5.38;;;6.30;99.90;;;;;;5042171;28;20436;-86
2021/10/23 06:28:24;;;;;;;8.40;5.72;;;6.30;99.90;;;;;;5051808;28;20044;-87
2021/10/23 06:30:50;;;;;;;8.43;6.15;;;6.30;99.90;;;;;;5038510;28;20025;-86
2021/10/23 06:33:18;;;;;;;11.48;5.38;;;6.30;99.90;;;;;;5054903;28;20031;-87
2021/10/23 06:35:44;;;;;;;13.45;5.85;;;6.30;99.90;;;;;;5055352;28;20060;-87
2021/10/23 06:38:09;;;;;;;8.48;5.55;;;6.30;99.90;;;;;;5043736;28;20061;-87
2021/10/23 06:40:35;;;;;;;9.35;5.80;;;6.30;99.90;;;;;;5050236;28;20021;-86
2021/10/23 06:43:01;;;;;;;10.32;6.97;;;6.30;99.90;;;;;;5044801;28;20033;-87
2021/10/23 06:45:26;;;;;;;8.23;6.10;;;6.30;99.90;;;;;;5038405;28;20033;-87
2021/10/23 06:47:52;;;;;;;9.13;6.20;;;6.30;99.90;;;;;;5038174;28;20382;-86
2021/10/23 06:50:18;;;;;;;8.27;6.38;;;6.30;99.90;;;;;;5038479;28;20473;-87
2021/10/23 06:52:43;;;;;;;9.07;5.80;;;6.30;99.90;;;;;;5037943;28;20086;-86
2021/10/23 06:55:10;;;;;;;9.95;6.30;;;6.30;99.90;;;;;;5037347;28;20025;-87
2021/10/23 06:57:36;;;;;;;10.07;6.43;;;6.30;99.90;;;;;;5054789;28;20381;-86
2021/10/23 07:00:02;;;;;;;12.32;6.78;;;6.30;99.90;;;;;;5055620;28;20037;-86
2021/10/23 07:02:28;;;;;;;9.48;6.82;;;6.40;99.90;;;;;;5034094;28;20030;-87
2021/10/23 07:04:54;;;;;;;10.27;6.63;;;6.40;99.90;;;;;;5032985;28;20112;-86
2021/10/23 07:07:19;;;;;;;8.50;6.10;;;6.40;99.90;;;;;;5040450;28;20092;-86
2021/10/23 07:09:45;;;;;;;13.35;6.65;;;6.40;99.90;;;;;;5038866;28;20059;-86
2021/10/23 07:12:11;;;;;;;11.30;6.22;;;6.40;99.90;;;;;;5040058;28;20442;-87
2021/10/23 07:14:36;;;;;;;9.82;7.05;;;6.40;99.90;;;;;;5039563;28;20036;-86
2021/10/23 07:17:02;;;;;;;8.93;6.72;;;6.50;99.90;;;;;;5055844;28;20068;-87
2021/10/23 07:19:27;;;;;;;12.55;7.10;;;6.50;99.90;;;;;;5018844;28;20059;-87
2021/10/23 07:21:53;;;;;;;12.55;6.97;;;6.50;99.90;;;;;;5050857;28;20033;-87
2021/10/23 07:24:19;;;;;;;13.18;7.80;;;6.60;99.90;;;;;;5037708;28;20021;-87
2021/10/23 07:26:46;;;;;;;12.45;9.05;;;6.60;99.90;;;;;;5054379;28;20029;-87
2021/10/23 07:29:13;;;;;;;14.88;8.57;;;6.60;99.90;;;;;;5053181;28;20029;-88
2021/10/23 07:31:39;;;;;;;11.48;9.13;;;6.70;99.90;;;;;;5040903;28;20036;-87
2021/10/23 07:34:05;;;;;;;12.57;8.02;;;6.60;99.90;;;;;;5053413;28;20029;-87
2021/10/23 07:36:31;;;;;;;10.57;7.63;;;6.70;99.90;;;;;;5053470;28;20837;-87
2021/10/23 07:38:56;;;;;;;10.85;7.97;;;6.70;99.90;;;;;;5051000;28;20124;-87
2021/10/23 07:41:22;;;;;;;10.93;7.85;;;6.80;99.90;;;;;;5059742;28;20025;-86
2021/10/23 07:43:47;;;;;;;10.63;8.73;;;6.80;99.90;;;;;;5025059;28;20035;-86
2021/10/23 07:46:15;;;;;;;12.25;8.98;;;6.80;99.90;;;;;;5044278;28;20029;-87
2021/10/23 07:48:41;;;;;;;11.00;8.40;;;6.80;99.90;;;;;;5043013;28;20033;-85
2021/10/23 07:51:07;;;;;;;13.32;8.68;;;6.90;99.90;;;;;;5053641;28;20033;-85
2021/10/23 07:53:36;;;;;;;14.85;11.60;;;6.90;99.90;;;;;;5061147;28;20027;-86
2021/10/23 07:56:01;;;;;;;15.80;11.57;;;6.90;99.90;;;;;;5041466;28;20057;-86
2021/10/23 07:58:28;;;;;;;15.68;12.30;;;7.00;99.90;;;;;;5054627;28;20037;-85
2021/10/23 08:00:53;;;;;;;12.48;9.98;;;7.00;99.90;;;;;;5086597;28;20064;-86
2021/10/23 08:03:22;;;;;;;13.63;9.80;;;7.00;99.90;;;;;;5065633;28;20104;-87
2021/10/23 08:05:47;;;;;;;11.90;9.50;;;7.10;99.90;;;;;;5065894;28;20036;-87
2021/10/23 08:08:13;;;;;;;11.90;8.70;;;7.10;99.90;;;;;;5088349;28;20013;-86
2021/10/23 08:10:39;;;;;;;13.98;9.70;;;7.10;99.90;;;;;;5054293;28;20025;-86
2021/10/23 08:13:04;;;;;;;15.10;10.90;;;7.10;99.90;;;;;;5062578;28;20052;-86
2021/10/23 08:15:31;;;;;;;12.00;9.68;;;7.20;99.90;;;;;;5091642;28;20052;-87
2021/10/23 08:17:57;;;;;;;14.43;10.50;;;7.20;99.90;;;;;;5066310;28;20025;-86
2021/10/23 08:20:26;;;;;;;12.15;9.50;;;7.30;99.90;;;;;;5049553;28;20021;-86
2021/10/23 08:22:52;;;;;;;13.75;10.27;;;7.30;99.90;;;;;;5061373;28;20020;-87
2021/10/23 08:25:18;;;;;;;15.52;11.25;;;7.40;99.90;;;;;;5060969;28;20033;-86
2021/10/23 08:27:45;;;;;;;14.60;11.02;;;7.40;99.90;;;;;;5043519;28;20071;-87
2021/10/23 08:30:14;;;;;;;13.95;10.57;;;7.40;99.90;;;;;;5060367;28;20025;-86
2021/10/23 08:32:42;;;;;;;13.60;9.63;;;7.50;99.90;;;;;;5061311;28;20027;-87
2021/10/23 08:35:09;;;;;;;17.73;11.02;;;7.60;99.90;;;;;;5060411;28;20035;-86
2021/10/23 08:37:38;;;;;;;15.40;11.10;;;7.60;99.90;;;;;;5061463;28;20025;-85
2021/10/23 08:40:05;;;;;;;15.43;11.05;;;7.60;99.90;;;;;;5061658;28;20029;-86
2021/10/23 08:42:31;;;;;;;13.38;10.65;;;7.70;99.90;;;;;;5045230;28;20036;-85
2021/10/23 08:45:00;;;;;;;14.35;10.27;;;7.70;99.90;;;;;;5048151;28;20025;-86
2021/10/23 08:47:28;;;;;;;14.43;10.75;;;7.80;99.90;;;;;;5072776;28;20017;-87
2021/10/23 08:49:58;;;;;;;17.02;11.52;;;7.80;99.90;;;;;;5057415;28;20059;-87
2021/10/23 08:52:28;;;;;;;15.87;11.27;;;7.90;99.90;;;;;;5069930;28;20092;-87
2021/10/23 08:54:54;;;;;;;16.02;11.38;;;7.90;99.90;;;;;;5079182;28;20051;-87
2021/10/23 08:57:27;;;;;;;16.67;12.75;;;7.90;99.90;;;;;;5083464;28;20025;-86
2021/10/23 08:59:54;;;;;;;17.73;13.02;;;8.00;99.90;;;;;;5083025;28;20017;-87
2021/10/23 09:02:23;;;;;;;20.13;14.75;;;8.00;99.90;;;;;;5082808;28;20089;-88
2021/10/23 09:04:51;;;;;;;25.80;16.48;;;8.10;99.90;;;;;;5082733;28;20017;-86
2021/10/23 09:07:17;;;;;;;21.42;15.25;;;8.10;99.90;;;;;;5061682;28;20032;-87
2021/10/23 09:09:56;;;;;;;22.20;15.13;;;8.20;99.90;;;;;;5059807;28;20029;-94
2021/10/23 09:12:28;;;;;;;25.48;17.15;;;8.20;99.90;;;;;;5059898;28;20072;-87
2021/10/23 09:15:01;;;;;;;24.27;16.67;;;8.30;99.90;;;;;;5059693;28;20013;-85
2021/10/23 09:17:27;;;;;;;24.85;15.50;;;8.30;99.90;;;;;;5076413;28;20024;-87
2021/10/23 09:19:53;;;;;;;20.42;14.55;;;8.40;99.90;;;;;;5043134;28;20032;-87
2021/10/23 09:22:23;;;;;;;22.00;16.08;;;8.40;99.90;;;;;;5060041;28;20024;-87
2021/10/23 09:24:50;;;;;;;21.98;15.40;;;8.50;99.90;;;;;;5058928;28;20029;-87
2021/10/23 09:27:17;;;;;;;25.52;17.40;;;8.50;99.90;;;;;;5060089;28;20108;-88
2021/10/23 09:29:43;;;;;;;25.02;16.90;;;8.60;99.90;;;;;;5026346;28;20056;-88
2021/10/23 09:32:10;;;;;;;30.60;18.65;;;8.60;99.90;;;;;;5059119;28;20059;-87
2021/10/23 09:34:37;;;;;;;29.52;19.42;;;8.60;99.90;;;;;;5060581;28;20043;-88
2021/10/23 09:37:04;;;;;;;25.08;17.23;;;8.70;99.90;;;;;;5075469;28;20020;-87
2021/10/23 09:39:36;;;;;;;28.38;17.25;;;8.80;99.90;;;;;;5056043;28;20052;-87
2021/10/23 09:42:11;;;;;;;23.08;16.20;;;8.80;99.90;;;;;;5055209;28;20363;-87
2021/10/23 09:44:39;;;;;;;23.63;16.00;;;8.90;99.90;;;;;;5069338;28;20021;-87
2021/10/23 09:47:07;;;;;;;24.75;17.30;;;8.90;99.90;;;;;;5065859;28;20020;-87
2021/10/23 09:49:33;;;;;;;22.40;15.52;;;9.00;99.90;;;;;;5051792;28;20031;-86
2021/10/23 09:52:06;;;;;;;27.08;18.70;;;9.00;99.90;;;;;;5072706;28;20033;-87
2021/10/23 09:54:36;;;;;;;23.65;17.70;;;9.10;99.90;;;;;;5063220;28;20024;-87
2021/10/23 09:57:10;;;;;;;24.33;15.48;;;9.10;99.90;;;;;;5061867;28;20020;-87
2021/10/23 09:59:39;;;;;;;26.77;16.85;;;9.10;99.90;;;;;;5074261;28;20024;-87
2021/10/23 10:02:06;;;;;;;28.23;19.13;;;9.20;99.90;;;;;;5051889;28;20470;-89
2021/10/23 10:04:33;;;;;;;30.92;18.52;;;9.20;99.90;;;;;;5057717;28;20070;-87
2021/10/23 10:07:01;;;;;;;26.45;16.83;;;9.30;99.90;;;;;;5049913;28;20445;-87
2021/10/23 10:09:27;;;;;;;27.33;17.13;;;9.30;99.90;;;;;;5067362;28;20033;-87
2021/10/23 10:11:55;;;;;;;22.20;15.23;;;9.30;99.90;;;;;;5040248;28;20023;-86
2021/10/23 10:14:26;;;;;;;22.83;15.20;;;9.40;99.90;;;;;;5057833;28;20020;-86
2021/10/23 10:16:54;;;;;;;19.83;14.63;;;9.40;99.90;;;;;;5058467;28;20192;-86
2021/10/23 10:19:20;;;;;;;24.10;16.75;;;9.40;99.90;;;;;;5041335;28;20051;-86
2021/10/23 10:21:48;;;;;;;23.45;16.73;;;9.50;99.90;;;;;;5058406;28;20009;-87
2021/10/23 10:24:23;;;;;;;29.63;18.70;;;9.50;99.90;;;;;;5058145;28;20087;-89
2021/10/23 10:27:03;;;;;;;33.83;21.25;;;9.50;99.90;;;;;;5055105;28;20009;-89
2021/10/23 10:32:42;;;;;;;40.20;24.05;;;9.60;99.90;;;;;;5071386;28;20499;-88
2021/10/23 10:43:06;;;;;;;39.40;25.55;;;10.00;99.90;;;;;;5076205;28;20030;-88
2021/10/23 10:45:37;;;;;;;34.50;22.80;;;10.00;99.90;;;;;;5076218;28;20047;-93
2021/10/23 10:48:26;;;;;;;39.45;26.38;;;10.10;99.90;;;;;;5048785;28;20025;-94
2021/10/23 10:50:59;;;;;;;37.47;25.25;;;10.10;99.90;;;;;;5058829;28;20021;-87
2021/10/23 10:53:51;;;;;;;39.47;25.85;;;10.20;99.90;;;;;;5070127;28;20016;-86
2021/10/23 10:56:17;;;;;;;34.50;23.98;;;10.20;99.90;;;;;;5059422;28;20029;-87
2021/10/23 10:58:57;;;;;;;33.03;21.98;;;10.30;99.90;;;;;;5061017;28;20449;-88
2021/10/23 11:01:31;;;;;;;31.85;20.95;;;10.30;99.90;;;;;;5065606;28;20004;-87
2021/10/23 11:04:02;;;;;;;32.53;20.80;;;10.30;99.90;;;;;;5063256;28;20069;-87
2021/10/23 11:06:36;;;;;;;32.13;21.05;;;10.40;99.90;;;;;;5083626;28;20025;-87
2021/10/23 11:09:10;;;;;;;30.42;19.83;;;10.40;99.90;;;;;;5066521;28;20024;-87
2021/10/23 11:11:49;;;;;;;29.20;19.55;;;10.40;99.90;;;;;;5060282;28;20015;-88
2021/10/23 11:14:35;;;;;;;33.95;21.75;;;10.50;99.90;;;;;;5057534;28;20055;-88
2021/10/23 11:17:01;;;;;;;33.78;20.60;;;10.50;99.90;;;;;;5079470;28;20123;-89
2021/10/23 11:19:43;;;;;;;31.92;20.20;;;10.50;99.90;;;;;;5062550;28;20173;-88
2021/10/23 11:22:11;;;;;;;30.05;19.50;;;10.60;99.90;;;;;;5062172;28;20118;-87
2021/10/23 11:25:00;;;;;;;29.33;19.10;;;10.60;99.90;;;;;;5063310;28;20361;-85
2021/10/23 11:27:44;;;;;;;29.85;18.73;;;10.60;99.90;;;;;;5061763;28;20012;-88
2021/10/23 11:30:20;;;;;;;27.23;17.67;;;10.70;99.90;;;;;;5083689;28;20063;-88
2021/10/23 11:32:48;;;;;;;28.13;18.13;;;10.70;99.90;;;;;;5066808;28;20070;-88
2021/10/23 11:35:15;;;;;;;27.10;17.60;;;10.70;99.90;;;;;;5063349;28;20118;-88
2021/10/23 11:37:41;;;;;;;25.48;17.02;;;10.80;99.90;;;;;;5062875;28;20015;-85
2021/10/23 11:40:10;;;;;;;30.05;17.27;;;10.80;99.90;;;;;;5047480;28;20036;-86
2021/10/23 11:42:42;;;;;;;25.95;16.67;;;10.90;99.90;;;;;;5055308;28;20049;-88
2021/10/23 11:45:14;;;;;;;27.52;16.10;;;10.90;99.90;;;;;;5080169;28;20021;-87
2021/10/23 11:47:40;;;;;;;31.38;18.27;;;10.90;99.90;;;;;;5095246;28;20030;-87
2021/10/23 11:50:30;;;;;;;32.20;18.75;;;10.90;99.90;;;;;;5096832;28;20021;-85
2021/10/23 11:53:08;;;;;;;27.60;17.83;;;11.00;99.90;;;;;;5066963;28;20020;-87
2021/10/23 11:55:45;;;;;;;24.40;16.27;;;11.00;99.90;;;;;;5074919;28;20013;-85
2021/10/23 11:58:19;;;;;;;30.83;19.55;;;11.10;99.90;;;;;;5072899;28;20024;-88
2021/10/23 12:01:00;;;;;;;32.13;21.35;;;11.10;99.90;;;;;;5047011;28;20484;-87
2021/10/23 12:03:28;;;;;;;;;;;11.20;99.90;;;;;;5058204;28;20024;-89
2021/10/23 12:05:54;;;;;;;33.85;19.70;;;11.20;99.90;;;;;;5059453;28;19979;-95
2021/10/23 12:08:27;;;;;;;35.97;22.27;;;11.20;99.90;;;;;;5043580;28;20489;-95
2021/10/23 12:11:18;;;;;;;35.00;21.35;;;11.20;99.90;;;;;;5058301;28;20020;-94
2021/10/23 12:13:59;;;;;;;;;;;11.30;99.90;;;;;;5060830;28;20115;-94
2021/10/23 12:16:46;;;;;;;33.42;19.83;;;11.30;99.90;;;;;;5064345;28;20390;-94
2021/10/23 12:19:19;;;;;;;33.30;19.70;;;11.30;99.90;;;;;;5061524;28;20039;-94
2021/10/23 12:21:46;;;;;;;29.88;19.60;;;11.30;99.90;;;;;;5075690;28;20021;-93
2021/10/23 12:24:30;;;;;;;33.75;18.67;;;11.40;99.90;;;;;;5059360;28;20027;-89
2021/10/23 12:27:25;;;;;;;29.42;18.63;;;11.40;99.90;;;;;;5052153;28;20174;-86
2021/10/23 12:30:02;;;;;;;29.30;18.45;;;11.40;99.90;;;;;;5056519;28;20025;-87
2021/10/23 12:32:38;;;;;;;29.48;18.67;;;11.50;99.90;;;;;;5056708;28;20021;-87
2021/10/23 12:35:11;;;;;;;30.83;19.00;;;11.50;99.90;;;;;;5049469;28;20415;-86
2021/10/23 12:37:50;;;;;;;36.40;20.58;;;11.50;99.90;;;;;;5053665;28;20461;-87
2021/10/23 12:40:24;;;;;;;29.55;18.92;;;11.60;99.90;;;;;;5054964;28;20108;-88
2021/10/23 12:43:13;;;;;;;30.90;19.40;;;11.60;99.90;;;;;;5053225;28;20481;-88
2021/10/23 12:45:48;;;;;;;27.25;18.95;;;11.70;99.90;;;;;;5055469;28;20373;-88
2021/10/23 12:48:19;;;;;;;29.08;17.90;;;11.70;99.90;;;;;;5055312;28;20104;-89
2021/10/23 12:50:46;;;;;;;27.25;18.00;;;11.70;99.90;;;;;;5075784;28;20017;-93
2021/10/23 12:53:13;;;;;;;27.90;17.23;;;11.70;99.90;;;;;;5062712;28;20032;-95
2021/10/23 12:55:39;;;;;;;26.73;16.55;;;11.80;99.90;;;;;;5061787;28;20468;-87
2021/10/23 12:58:05;;;;;;;25.25;17.45;;;11.80;99.90;;;;;;5057370;28;20063;-88
2021/10/23 13:00:31;;;;;;;25.20;16.35;;;11.80;99.90;;;;;;5038250;28;20025;-87